sensor_id;sensor_type;location;lat;lon;timestamp;pressure;altitude;pressure_sealevel;temperature;humidity
44351;BME280;62766;62.622;17.912;2023-02-13T00:00:17;101079.99;;;4.56;59.09
44351;BME280;62766;62.622;17.912;2023-02-13T00:02:45;101077.02;;;4.57;59.12
44351;BME280;62766;62.622;17.912;2023-02-13T00:05:14;101076.26;;;4.58;59.14
44351;BME280;62766;62.622;17.912;2023-02-13T00:07:42;101070.17;;;4.56;58.99
44351;BME280;62766;62.622;17.912;2023-02-13T00:10:11;101069.06;;;4.51;58.98
44351;BME280;62766;62.622;17.912;2023-02-13T00:12:41;101062.00;;;4.52;58.92
44351;BME280;62766;62.622;17.912;2023-02-13T00:15:10;101058.81;;;4.62;58.83
44351;BME280;62766;62.622;17.912;2023-02-13T00:17:39;101058.86;;;4.67;58.85
44351;BME280;62766;62.622;17.912;2023-02-13T00:20:09;101057.98;;;4.70;58.71
44351;BME280;62766;62.622;17.912;2023-02-13T00:22:39;101057.32;;;4.65;58.70
44351;BME280;62766;62.622;17.912;2023-02-13T00:25:08;101054.71;;;4.64;58.67
44351;BME280;62766;62.622;17.912;2023-02-13T00:27:36;101065.06;;;4.65;58.67
44351;BME280;62766;62.622;17.912;2023-02-13T00:30:06;101061.92;;;4.69;59.09
44351;BME280;62766;62.622;17.912;2023-02-13T00:32:35;101063.63;;;4.72;59.11
44351;BME280;62766;62.622;17.912;2023-02-13T00:35:03;101065.46;;;4.81;59.34
44351;BME280;62766;62.622;17.912;2023-02-13T00:37:32;101060.44;;;4.80;59.76
44351;BME280;62766;62.622;17.912;2023-02-13T00:40:00;101061.14;;;4.77;59.37
44351;BME280;62766;62.622;17.912;2023-02-13T00:42:28;101064.53;;;4.78;59.47
44351;BME280;62766;62.622;17.912;2023-02-13T00:44:56;101058.89;;;4.88;59.46
44351;BME280;62766;62.622;17.912;2023-02-13T00:47:25;101062.07;;;4.88;59.61
44351;BME280;62766;62.622;17.912;2023-02-13T00:49:53;101063.54;;;4.99;59.48
44351;BME280;62766;62.622;17.912;2023-02-13T00:52:21;101060.29;;;4.86;59.65
44351;BME280;62766;62.622;17.912;2023-02-13T00:54:50;101065.18;;;4.94;59.91
44351;BME280;62766;62.622;17.912;2023-02-13T00:57:18;101061.85;;;5.05;59.98
44351;BME280;62766;62.622;17.912;2023-02-13T00:59:46;101068.76;;;5.08;59.92
44351;BME280;62766;62.622;17.912;2023-02-13T01:02:15;101068.61;;;5.00;59.60
44351;BME280;62766;62.622;17.912;2023-02-13T01:04:43;101068.42;;;5.02;59.41
44351;BME280;62766;62.622;17.912;2023-02-13T01:07:12;101070.00;;;5.18;59.27
44351;BME280;62766;62.622;17.912;2023-02-13T01:09:40;101072.33;;;5.21;59.01
44351;BME280;62766;62.622;17.912;2023-02-13T01:12:08;101071.66;;;5.30;58.79
44351;BME280;62766;62.622;17.912;2023-02-13T01:14:38;101069.48;;;5.19;58.91
44351;BME280;62766;62.622;17.912;2023-02-13T01:17:06;101068.75;;;5.29;59.10
44351;BME280;62766;62.622;17.912;2023-02-13T01:19:35;101073.36;;;5.02;59.10
44351;BME280;62766;62.622;17.912;2023-02-13T01:22:03;101067.52;;;5.18;58.98
44351;BME280;62766;62.622;17.912;2023-02-13T01:24:31;101062.72;;;5.16;59.12
44351;BME280;62766;62.622;17.912;2023-02-13T01:27:00;101065.33;;;5.08;59.27
44351;BME280;62766;62.622;17.912;2023-02-13T01:29:29;101060.23;;;5.20;59.25
44351;BME280;62766;62.622;17.912;2023-02-13T01:31:57;101061.15;;;5.17;59.28
44351;BME280;62766;62.622;17.912;2023-02-13T01:34:25;101070.08;;;5.27;59.29
44351;BME280;62766;62.622;17.912;2023-02-13T01:36:53;101057.35;;;5.15;59.11
44351;BME280;62766;62.622;17.912;2023-02-13T01:39:21;101061.26;;;5.30;59.55
44351;BME280;62766;62.622;17.912;2023-02-13T01:41:50;101052.77;;;5.31;59.27
44351;BME280;62766;62.622;17.912;2023-02-13T01:44:53;101049.27;;;5.27;59.19
44351;BME280;62766;62.622;17.912;2023-02-13T01:47:25;101045.13;;;5.47;59.10
44351;BME280;62766;62.622;17.912;2023-02-13T01:50:02;101045.48;;;5.34;59.04
44351;BME280;62766;62.622;17.912;2023-02-13T01:52:32;101041.28;;;5.47;59.49
44351;BME280;62766;62.622;17.912;2023-02-13T01:55:03;101043.99;;;5.43;59.44
44351;BME280;62766;62.622;17.912;2023-02-13T01:57:32;101029.43;;;5.52;59.50
44351;BME280;62766;62.622;17.912;2023-02-13T02:00:04;101030.54;;;5.59;59.47
44351;BME280;62766;62.622;17.912;2023-02-13T02:02:36;101031.59;;;5.63;59.28
44351;BME280;62766;62.622;17.912;2023-02-13T02:05:07;101025.71;;;5.58;59.24
44351;BME280;62766;62.622;17.912;2023-02-13T02:07:37;101019.49;;;5.58;59.34
44351;BME280;62766;62.622;17.912;2023-02-13T02:10:10;101017.02;;;5.65;59.27
44351;BME280;62766;62.622;17.912;2023-02-13T02:12:42;101014.54;;;5.59;59.19
44351;BME280;62766;62.622;17.912;2023-02-13T02:15:13;101019.59;;;5.60;59.00
44351;BME280;62766;62.622;17.912;2023-02-13T02:17:42;101029.54;;;5.73;58.94
44351;BME280;62766;62.622;17.912;2023-02-13T02:20:19;101007.53;;;5.80;58.85
44351;BME280;62766;62.622;17.912;2023-02-13T02:23:23;101013.82;;;5.72;58.66
44351;BME280;62766;62.622;17.912;2023-02-13T02:26:15;101023.87;;;5.71;58.70
44351;BME280;62766;62.622;17.912;2023-02-13T02:29:10;101031.83;;;5.61;58.74
44351;BME280;62766;62.622;17.912;2023-02-13T02:32:01;101035.62;;;5.62;58.69
44351;BME280;62766;62.622;17.912;2023-02-13T02:34:42;101034.87;;;5.69;58.46
44351;BME280;62766;62.622;17.912;2023-02-13T02:37:26;101049.77;;;5.69;58.45
44351;BME280;62766;62.622;17.912;2023-02-13T02:40:10;101047.38;;;5.73;58.32
44351;BME280;62766;62.622;17.912;2023-02-13T02:42:56;101053.65;;;5.91;58.31
44351;BME280;62766;62.622;17.912;2023-02-13T02:45:36;101055.21;;;5.76;58.12
44351;BME280;62766;62.622;17.912;2023-02-13T02:48:13;101044.96;;;5.77;58.12
44351;BME280;62766;62.622;17.912;2023-02-13T02:50:50;101040.82;;;5.77;58.39
44351;BME280;62766;62.622;17.912;2023-02-13T02:53:29;101034.28;;;5.83;58.60
44351;BME280;62766;62.622;17.912;2023-02-13T02:56:06;101035.84;;;5.86;58.79
44351;BME280;62766;62.622;17.912;2023-02-13T02:58:40;101045.66;;;5.78;59.13
44351;BME280;62766;62.622;17.912;2023-02-13T03:01:14;101044.71;;;5.80;59.38
44351;BME280;62766;62.622;17.912;2023-02-13T03:03:45;101046.05;;;5.63;59.66
44351;BME280;62766;62.622;17.912;2023-02-13T03:06:18;101040.07;;;5.68;59.55
44351;BME280;62766;62.622;17.912;2023-02-13T03:08:53;101042.37;;;5.66;59.81
44351;BME280;62766;62.622;17.912;2023-02-13T03:11:23;101056.92;;;5.59;59.86
44351;BME280;62766;62.622;17.912;2023-02-13T03:13:52;101053.23;;;5.64;59.57
44351;BME280;62766;62.622;17.912;2023-02-13T03:16:23;101055.14;;;5.66;59.69
44351;BME280;62766;62.622;17.912;2023-02-13T03:18:55;101054.87;;;5.96;59.52
44351;BME280;62766;62.622;17.912;2023-02-13T03:21:40;101046.76;;;5.79;59.21
44351;BME280;62766;62.622;17.912;2023-02-13T03:24:18;101053.70;;;5.67;59.32
44351;BME280;62766;62.622;17.912;2023-02-13T03:26:54;101049.33;;;5.78;59.22
44351;BME280;62766;62.622;17.912;2023-02-13T03:29:34;101046.98;;;5.75;59.34
44351;BME280;62766;62.622;17.912;2023-02-13T03:32:13;101032.47;;;5.79;59.26
44351;BME280;62766;62.622;17.912;2023-02-13T03:34:50;101031.35;;;5.87;59.24
44351;BME280;62766;62.622;17.912;2023-02-13T03:37:26;101038.16;;;5.87;59.05
44351;BME280;62766;62.622;17.912;2023-02-13T03:40:02;101033.09;;;5.89;58.97
44351;BME280;62766;62.622;17.912;2023-02-13T03:42:36;101022.22;;;5.78;59.18
44351;BME280;62766;62.622;17.912;2023-02-13T03:45:11;101035.54;;;5.76;59.11
44351;BME280;62766;62.622;17.912;2023-02-13T03:47:42;101040.23;;;5.82;59.11
44351;BME280;62766;62.622;17.912;2023-02-13T03:50:12;101045.20;;;5.91;58.85
44351;BME280;62766;62.622;17.912;2023-02-13T03:52:48;101045.32;;;5.91;58.90
44351;BME280;62766;62.622;17.912;2023-02-13T03:55:18;101055.29;;;6.00;58.90
44351;BME280;62766;62.622;17.912;2023-02-13T03:57:51;101051.83;;;5.98;58.85
44351;BME280;62766;62.622;17.912;2023-02-13T04:00:21;101039.95;;;5.91;58.81
44351;BME280;62766;62.622;17.912;2023-02-13T04:02:56;101038.69;;;5.87;58.91
44351;BME280;62766;62.622;17.912;2023-02-13T04:05:28;101039.83;;;6.08;58.73
44351;BME280;62766;62.622;17.912;2023-02-13T04:07:59;101038.76;;;6.01;58.62
44351;BME280;62766;62.622;17.912;2023-02-13T04:10:31;101044.12;;;5.91;58.56
44351;BME280;62766;62.622;17.912;2023-02-13T04:13:08;101036.47;;;5.98;58.51
44351;BME280;62766;62.622;17.912;2023-02-13T04:15:42;101042.95;;;5.93;58.13
44351;BME280;62766;62.622;17.912;2023-02-13T04:18:16;101033.61;;;6.08;58.27
44351;BME280;62766;62.622;17.912;2023-02-13T04:20:45;101048.89;;;6.18;58.21
44351;BME280;62766;62.622;17.912;2023-02-13T04:23:14;101059.90;;;6.03;58.30
44351;BME280;62766;62.622;17.912;2023-02-13T04:25:46;101046.92;;;6.01;58.09
44351;BME280;62766;62.622;17.912;2023-02-13T04:28:15;101045.94;;;5.99;58.10
44351;BME280;62766;62.622;17.912;2023-02-13T04:30:44;101047.62;;;5.92;58.09
44351;BME280;62766;62.622;17.912;2023-02-13T04:33:12;101046.14;;;5.76;58.35
44351;BME280;62766;62.622;17.912;2023-02-13T04:35:40;101040.29;;;5.77;58.34
44351;BME280;62766;62.622;17.912;2023-02-13T04:38:09;101039.68;;;5.92;58.20
44351;BME280;62766;62.622;17.912;2023-02-13T04:40:37;101034.61;;;5.79;58.25
44351;BME280;62766;62.622;17.912;2023-02-13T04:43:05;101031.21;;;5.88;58.12
44351;BME280;62766;62.622;17.912;2023-02-13T04:45:34;101021.06;;;5.91;58.17
44351;BME280;62766;62.622;17.912;2023-02-13T04:48:03;101031.49;;;5.91;57.92
44351;BME280;62766;62.622;17.912;2023-02-13T04:50:31;101027.59;;;6.08;57.66
44351;BME280;62766;62.622;17.912;2023-02-13T04:52:59;101022.86;;;6.05;57.37
44351;BME280;62766;62.622;17.912;2023-02-13T04:55:28;101032.18;;;6.06;57.19
44351;BME280;62766;62.622;17.912;2023-02-13T04:57:56;101031.14;;;6.17;57.11
44351;BME280;62766;62.622;17.912;2023-02-13T05:03:43;101021.19;;;6.01;57.18
44351;BME280;62766;62.622;17.912;2023-02-13T05:06:11;101018.24;;;5.98;57.15
44351;BME280;62766;62.622;17.912;2023-02-13T05:08:39;101022.92;;;6.19;57.00
44351;BME280;62766;62.622;17.912;2023-02-13T05:11:08;101026.73;;;6.03;56.74
44351;BME280;62766;62.622;17.912;2023-02-13T05:13:36;101021.98;;;6.27;56.62
44351;BME280;62766;62.622;17.912;2023-02-13T05:16:05;101030.92;;;6.24;56.69
44351;BME280;62766;62.622;17.912;2023-02-13T05:18:33;101028.90;;;6.19;56.87
44351;BME280;62766;62.622;17.912;2023-02-13T05:21:02;101018.78;;;6.21;56.94
44351;BME280;62766;62.622;17.912;2023-02-13T05:23:31;101005.82;;;6.20;56.99
44351;BME280;62766;62.622;17.912;2023-02-13T05:26:00;101025.02;;;6.08;56.91
44351;BME280;62766;62.622;17.912;2023-02-13T05:28:29;101010.41;;;6.24;56.77
44351;BME280;62766;62.622;17.912;2023-02-13T05:30:58;101006.45;;;6.30;56.62
44351;BME280;62766;62.622;17.912;2023-02-13T05:33:27;101007.92;;;6.29;56.65
44351;BME280;62766;62.622;17.912;2023-02-13T05:35:55;100996.49;;;6.26;56.59
44351;BME280;62766;62.622;17.912;2023-02-13T05:38:23;101001.27;;;6.28;56.47
44351;BME280;62766;62.622;17.912;2023-02-13T05:40:52;101016.12;;;6.28;56.50
44351;BME280;62766;62.622;17.912;2023-02-13T05:43:20;101010.21;;;6.21;56.56
44351;BME280;62766;62.622;17.912;2023-02-13T05:45:48;100987.50;;;6.16;56.70
44351;BME280;62766;62.622;17.912;2023-02-13T05:48:17;100995.00;;;6.09;56.85
44351;BME280;62766;62.622;17.912;2023-02-13T05:50:45;101003.46;;;6.14;57.03
44351;BME280;62766;62.622;17.912;2023-02-13T05:53:13;100973.55;;;6.13;57.08
44351;BME280;62766;62.622;17.912;2023-02-13T05:55:42;100993.84;;;6.16;57.20
44351;BME280;62766;62.622;17.912;2023-02-13T05:58:10;100973.77;;;5.95;57.39
44351;BME280;62766;62.622;17.912;2023-02-13T06:00:38;100987.63;;;6.06;57.62
44351;BME280;62766;62.622;17.912;2023-02-13T06:03:07;100987.75;;;6.03;57.62
44351;BME280;62766;62.622;17.912;2023-02-13T06:05:35;100997.83;;;5.98;57.74
44351;BME280;62766;62.622;17.912;2023-02-13T06:08:04;100997.63;;;5.99;57.66
44351;BME280;62766;62.622;17.912;2023-02-13T06:10:32;100999.35;;;6.04;57.58
44351;BME280;62766;62.622;17.912;2023-02-13T06:13:00;101004.42;;;6.02;57.65
44351;BME280;62766;62.622;17.912;2023-02-13T06:15:29;101005.73;;;6.10;57.69
44351;BME280;62766;62.622;17.912;2023-02-13T06:17:58;101011.52;;;6.09;57.70
44351;BME280;62766;62.622;17.912;2023-02-13T06:20:27;101014.22;;;6.11;57.70
44351;BME280;62766;62.622;17.912;2023-02-13T06:22:55;101017.93;;;6.07;57.82
44351;BME280;62766;62.622;17.912;2023-02-13T06:25:24;101029.93;;;6.16;57.65
44351;BME280;62766;62.622;17.912;2023-02-13T06:27:53;101022.34;;;6.11;57.67
44351;BME280;62766;62.622;17.912;2023-02-13T06:30:22;101032.06;;;6.18;57.71
44351;BME280;62766;62.622;17.912;2023-02-13T06:32:50;101035.00;;;6.08;57.66
44351;BME280;62766;62.622;17.912;2023-02-13T06:35:19;101040.04;;;6.03;57.53
44351;BME280;62766;62.622;17.912;2023-02-13T06:37:47;101045.43;;;6.10;57.52
44351;BME280;62766;62.622;17.912;2023-02-13T06:40:15;101044.51;;;6.08;57.59
44351;BME280;62766;62.622;17.912;2023-02-13T06:42:45;101054.85;;;5.92;57.55
44351;BME280;62766;62.622;17.912;2023-02-13T06:45:14;101052.11;;;6.00;57.55
44351;BME280;62766;62.622;17.912;2023-02-13T06:47:43;101056.56;;;6.10;57.38
44351;BME280;62766;62.622;17.912;2023-02-13T06:50:14;101052.04;;;6.16;57.37
44351;BME280;62766;62.622;17.912;2023-02-13T06:52:45;101067.17;;;6.12;57.28
44351;BME280;62766;62.622;17.912;2023-02-13T06:55:15;101059.53;;;6.15;57.32
44351;BME280;62766;62.622;17.912;2023-02-13T06:57:44;101074.84;;;6.07;57.41
44351;BME280;62766;62.622;17.912;2023-02-13T07:02:44;101082.75;;;5.96;57.51
44351;BME280;62766;62.622;17.912;2023-02-13T07:05:13;101088.33;;;6.03;57.35
44351;BME280;62766;62.622;17.912;2023-02-13T07:07:43;101095.85;;;6.16;57.22
44351;BME280;62766;62.622;17.912;2023-02-13T07:10:13;101096.05;;;6.17;57.18
44351;BME280;62766;62.622;17.912;2023-02-13T07:12:41;101104.92;;;6.20;56.95
44351;BME280;62766;62.622;17.912;2023-02-13T07:15:10;101110.46;;;6.39;56.86
44351;BME280;62766;62.622;17.912;2023-02-13T07:17:38;101127.64;;;6.29;56.78
44351;BME280;62766;62.622;17.912;2023-02-13T07:20:08;101121.88;;;6.33;56.61
44351;BME280;62766;62.622;17.912;2023-02-13T07:22:36;101119.99;;;6.26;56.41
44351;BME280;62766;62.622;17.912;2023-02-13T07:25:05;101123.90;;;6.34;56.44
44351;BME280;62766;62.622;17.912;2023-02-13T07:27:35;101111.72;;;6.30;56.38
44351;BME280;62766;62.622;17.912;2023-02-13T07:30:04;101115.74;;;6.39;56.51
44351;BME280;62766;62.622;17.912;2023-02-13T07:32:33;101105.73;;;6.40;56.50
44351;BME280;62766;62.622;17.912;2023-02-13T07:35:02;101110.31;;;6.29;56.48
44351;BME280;62766;62.622;17.912;2023-02-13T07:37:31;101105.73;;;6.30;56.47
44351;BME280;62766;62.622;17.912;2023-02-13T07:40:00;101103.43;;;6.27;56.41
44351;BME280;62766;62.622;17.912;2023-02-13T07:42:31;101107.67;;;6.29;56.41
44351;BME280;62766;62.622;17.912;2023-02-13T07:45:00;101102.87;;;6.34;56.45
44351;BME280;62766;62.622;17.912;2023-02-13T07:47:29;101101.74;;;6.45;56.11
44351;BME280;62766;62.622;17.912;2023-02-13T07:49:58;101101.52;;;6.56;55.99
44351;BME280;62766;62.622;17.912;2023-02-13T07:52:27;101105.98;;;6.43;55.90
44351;BME280;62766;62.622;17.912;2023-02-13T07:54:55;101107.27;;;6.55;56.00
44351;BME280;62766;62.622;17.912;2023-02-13T07:57:23;101096.51;;;6.49;56.10
44351;BME280;62766;62.622;17.912;2023-02-13T07:59:52;101102.47;;;6.56;56.03
44351;BME280;62766;62.622;17.912;2023-02-13T08:02:20;101099.74;;;6.50;56.15
44351;BME280;62766;62.622;17.912;2023-02-13T08:04:48;101096.24;;;6.48;56.08
44351;BME280;62766;62.622;17.912;2023-02-13T08:07:17;101110.78;;;6.59;55.79
44351;BME280;62766;62.622;17.912;2023-02-13T08:09:45;101114.31;;;6.66;55.50
44351;BME280;62766;62.622;17.912;2023-02-13T08:12:13;101131.16;;;6.75;55.35
44351;BME280;62766;62.622;17.912;2023-02-13T08:14:42;101124.40;;;6.70;55.38
44351;BME280;62766;62.622;17.912;2023-02-13T08:17:10;101131.77;;;6.79;55.29
44351;BME280;62766;62.622;17.912;2023-02-13T08:19:39;101131.82;;;6.84;55.03
44351;BME280;62766;62.622;17.912;2023-02-13T08:22:07;101138.53;;;6.89;54.81
44351;BME280;62766;62.622;17.912;2023-02-13T08:24:37;101145.53;;;6.89;54.65
44351;BME280;62766;62.622;17.912;2023-02-13T08:27:05;101141.37;;;6.94;54.40
44351;BME280;62766;62.622;17.912;2023-02-13T08:29:33;101140.68;;;6.92;54.39
44351;BME280;62766;62.622;17.912;2023-02-13T08:32:02;101142.25;;;6.98;54.22
44351;BME280;62766;62.622;17.912;2023-02-13T08:34:31;101140.69;;;7.02;54.12
44351;BME280;62766;62.622;17.912;2023-02-13T08:37:00;101147.74;;;7.08;54.04
44351;BME280;62766;62.622;17.912;2023-02-13T08:39:29;101147.22;;;7.11;53.82
44351;BME280;62766;62.622;17.912;2023-02-13T08:41:58;101147.27;;;7.11;53.60
44351;BME280;62766;62.622;17.912;2023-02-13T08:44:27;101144.37;;;6.99;53.54
44351;BME280;62766;62.622;17.912;2023-02-13T08:46:55;101158.22;;;7.13;53.52
44351;BME280;62766;62.622;17.912;2023-02-13T08:49:23;101161.98;;;7.01;53.47
44351;BME280;62766;62.622;17.912;2023-02-13T08:51:51;101177.13;;;7.12;53.38
44351;BME280;62766;62.622;17.912;2023-02-13T08:54:20;101182.89;;;7.21;53.04
44351;BME280;62766;62.622;17.912;2023-02-13T08:56:48;101190.35;;;7.33;53.10
44351;BME280;62766;62.622;17.912;2023-02-13T08:59:16;101191.77;;;7.32;52.83
44351;BME280;62766;62.622;17.912;2023-02-13T09:01:45;101196.97;;;7.51;52.60
44351;BME280;62766;62.622;17.912;2023-02-13T09:04:13;101198.35;;;7.45;52.25
44351;BME280;62766;62.622;17.912;2023-02-13T09:06:41;101212.24;;;7.57;52.29
44351;BME280;62766;62.622;17.912;2023-02-13T09:09:10;101203.75;;;7.52;52.04
44351;BME280;62766;62.622;17.912;2023-02-13T09:11:38;101197.53;;;7.59;52.01
44351;BME280;62766;62.622;17.912;2023-02-13T09:14:06;101207.88;;;7.57;51.92
44351;BME280;62766;62.622;17.912;2023-02-13T09:16:34;101204.06;;;7.59;51.80
44351;BME280;62766;62.622;17.912;2023-02-13T09:19:03;101211.49;;;7.66;51.80
44351;BME280;62766;62.622;17.912;2023-02-13T09:21:31;101206.50;;;7.66;51.88
44351;BME280;62766;62.622;17.912;2023-02-13T09:23:59;101211.30;;;7.69;51.83
44351;BME280;62766;62.622;17.912;2023-02-13T09:26:27;101214.43;;;7.66;52.02
44351;BME280;62766;62.622;17.912;2023-02-13T09:28:56;101209.20;;;7.71;51.82
44351;BME280;62766;62.622;17.912;2023-02-13T09:31:24;101217.60;;;7.73;51.78
44351;BME280;62766;62.622;17.912;2023-02-13T09:33:52;101224.31;;;7.77;51.74
44351;BME280;62766;62.622;17.912;2023-02-13T09:36:22;101227.79;;;7.66;51.65
44351;BME280;62766;62.622;17.912;2023-02-13T09:38:52;101240.99;;;7.68;51.58
44351;BME280;62766;62.622;17.912;2023-02-13T09:41:22;101240.37;;;7.66;51.68
44351;BME280;62766;62.622;17.912;2023-02-13T09:43:54;101246.38;;;7.74;51.55
44351;BME280;62766;62.622;17.912;2023-02-13T09:46:28;101249.73;;;7.86;51.51
44351;BME280;62766;62.622;17.912;2023-02-13T09:49:00;101247.64;;;7.83;51.46
44351;BME280;62766;62.622;17.912;2023-02-13T09:51:31;101262.93;;;7.87;51.12
44351;BME280;62766;62.622;17.912;2023-02-13T09:54:02;101264.31;;;7.95;51.07
44351;BME280;62766;62.622;17.912;2023-02-13T09:56:39;101272.63;;;7.90;51.03
44351;BME280;62766;62.622;17.912;2023-02-13T09:59:24;101287.22;;;8.03;50.98
44351;BME280;62766;62.622;17.912;2023-02-13T10:02:01;101287.00;;;8.03;50.91
44351;BME280;62766;62.622;17.912;2023-02-13T10:04:45;101285.41;;;7.98;51.19
44351;BME280;62766;62.622;17.912;2023-02-13T10:07:21;101291.02;;;7.88;51.24
44351;BME280;62766;62.622;17.912;2023-02-13T10:10:01;101297.59;;;7.93;51.37
44351;BME280;62766;62.622;17.912;2023-02-13T10:12:45;101308.49;;;7.84;51.53
44351;BME280;62766;62.622;17.912;2023-02-13T10:15:22;101307.95;;;7.90;51.55
44351;BME280;62766;62.622;17.912;2023-02-13T10:17:58;101318.95;;;7.90;51.66
44351;BME280;62766;62.622;17.912;2023-02-13T10:20:35;101317.14;;;7.77;51.71
44351;BME280;62766;62.622;17.912;2023-02-13T10:23:15;101315.42;;;7.78;51.87
44351;BME280;62766;62.622;17.912;2023-02-13T10:25:48;101317.37;;;7.83;51.92
44351;BME280;62766;62.622;17.912;2023-02-13T10:28:29;101323.13;;;7.72;51.80
44351;BME280;62766;62.622;17.912;2023-02-13T10:31:04;101323.38;;;7.94;51.72
44351;BME280;62766;62.622;17.912;2023-02-13T10:33:39;101331.01;;;7.91;51.72
44351;BME280;62766;62.622;17.912;2023-02-13T10:36:15;101331.82;;;8.00;51.65
44351;BME280;62766;62.622;17.912;2023-02-13T10:38:55;101327.53;;;7.93;51.69
44351;BME280;62766;62.622;17.912;2023-02-13T10:41:26;101333.66;;;7.84;51.75
44351;BME280;62766;62.622;17.912;2023-02-13T10:44:05;101338.35;;;8.02;51.75
44351;BME280;62766;62.622;17.912;2023-02-13T10:46:50;101333.57;;;8.02;51.76
44351;BME280;62766;62.622;17.912;2023-02-13T10:49:34;101330.17;;;8.01;51.71
44351;BME280;62766;62.622;17.912;2023-02-13T10:52:12;101330.80;;;8.03;51.75
44351;BME280;62766;62.622;17.912;2023-02-13T10:55:01;101334.66;;;8.11;51.67
44351;BME280;62766;62.622;17.912;2023-02-13T10:57:46;101333.04;;;8.00;51.63
44351;BME280;62766;62.622;17.912;2023-02-13T11:03:31;101333.73;;;7.86;52.01
44351;BME280;62766;62.622;17.912;2023-02-13T11:06:04;101331.55;;;8.01;51.84
44351;BME280;62766;62.622;17.912;2023-02-13T11:08:38;101337.71;;;8.21;51.65
44351;BME280;62766;62.622;17.912;2023-02-13T11:11:27;101339.92;;;8.27;51.44
44351;BME280;62766;62.622;17.912;2023-02-13T11:14:08;101348.37;;;8.27;51.33
44351;BME280;62766;62.622;17.912;2023-02-13T11:16:40;101356.24;;;8.35;51.29
44351;BME280;62766;62.622;17.912;2023-02-13T11:19:17;101355.01;;;8.12;51.65
44351;BME280;62766;62.622;17.912;2023-02-13T11:21:52;101372.57;;;8.22;51.74
44351;BME280;62766;62.622;17.912;2023-02-13T11:24:24;101380.78;;;8.05;51.97
44351;BME280;62766;62.622;17.912;2023-02-13T11:26:57;101381.43;;;8.15;51.92
44351;BME280;62766;62.622;17.912;2023-02-13T11:29:28;101395.03;;;8.18;51.83
44351;BME280;62766;62.622;17.912;2023-02-13T11:32:19;101397.84;;;8.05;51.96
44351;BME280;62766;62.622;17.912;2023-02-13T11:34:48;101404.40;;;8.10;52.17
44351;BME280;62766;62.622;17.912;2023-02-13T11:37:22;101416.69;;;8.17;52.12
44351;BME280;62766;62.622;17.912;2023-02-13T11:39:53;101407.50;;;8.20;52.16
44351;BME280;62766;62.622;17.912;2023-02-13T11:42:27;101417.88;;;8.24;52.23
44351;BME280;62766;62.622;17.912;2023-02-13T11:44:59;101421.28;;;8.25;52.41
44351;BME280;62766;62.622;17.912;2023-02-13T11:47:33;101422.02;;;8.11;52.48
44351;BME280;62766;62.622;17.912;2023-02-13T11:50:04;101418.07;;;8.05;52.48
44351;BME280;62766;62.622;17.912;2023-02-13T11:52:34;101428.00;;;8.24;52.36
44351;BME280;62766;62.622;17.912;2023-02-13T11:55:23;101433.09;;;8.37;52.17
44351;BME280;62766;62.622;17.912;2023-02-13T11:57:56;101436.80;;;8.30;52.09
44351;BME280;62766;62.622;17.912;2023-02-13T12:00:29;101438.23;;;8.35;51.97
44351;BME280;62766;62.622;17.912;2023-02-13T12:02:58;101440.86;;;8.26;51.91
44351;BME280;62766;62.622;17.912;2023-02-13T12:05:27;101444.26;;;8.31;51.97
44351;BME280;62766;62.622;17.912;2023-02-13T12:07:58;101453.76;;;8.31;51.98
44351;BME280;62766;62.622;17.912;2023-02-13T12:10:28;101461.14;;;8.39;52.01
44351;BME280;62766;62.622;17.912;2023-02-13T12:13:00;101461.89;;;8.32;51.83
44351;BME280;62766;62.622;17.912;2023-02-13T12:15:32;101464.57;;;8.34;51.87
44351;BME280;62766;62.622;17.912;2023-02-13T12:18:05;101462.38;;;8.42;51.87
44351;BME280;62766;62.622;17.912;2023-02-13T12:20:50;101472.25;;;8.39;51.96
44351;BME280;62766;62.622;17.912;2023-02-13T12:23:30;101468.14;;;8.19;52.32
44351;BME280;62766;62.622;17.912;2023-02-13T12:26:10;101471.02;;;8.23;52.50
44351;BME280;62766;62.622;17.912;2023-02-13T12:28:56;101462.47;;;8.05;52.94
44351;BME280;62766;62.622;17.912;2023-02-13T12:31:41;101475.61;;;7.99;53.35
44351;BME280;62766;62.622;17.912;2023-02-13T12:34:44;101477.94;;;7.98;53.49
44351;BME280;62766;62.622;17.912;2023-02-13T12:37:28;101485.62;;;7.96;53.91
44351;BME280;62766;62.622;17.912;2023-02-13T12:40:19;101489.36;;;7.93;54.12
44351;BME280;62766;62.622;17.912;2023-02-13T12:43:00;101490.39;;;7.82;54.23
44351;BME280;62766;62.622;17.912;2023-02-13T12:45:39;101507.93;;;7.74;54.24
44351;BME280;62766;62.622;17.912;2023-02-13T12:48:21;101525.69;;;7.96;54.13
44351;BME280;62766;62.622;17.912;2023-02-13T12:51:02;101522.15;;;7.99;54.28
44351;BME280;62766;62.622;17.912;2023-02-13T12:53:45;101537.44;;;7.95;54.35
44351;BME280;62766;62.622;17.912;2023-02-13T12:56:29;101538.18;;;7.90;54.26
44351;BME280;62766;62.622;17.912;2023-02-13T12:59:04;101541.46;;;7.94;54.27
44351;BME280;62766;62.622;17.912;2023-02-13T13:01:51;101542.87;;;8.05;54.34
44351;BME280;62766;62.622;17.912;2023-02-13T13:04:33;101557.62;;;7.89;54.37
44351;BME280;62766;62.622;17.912;2023-02-13T13:07:26;101562.52;;;8.03;54.23
44351;BME280;62766;62.622;17.912;2023-02-13T13:10:15;101565.94;;;7.90;54.65
44351;BME280;62766;62.622;17.912;2023-02-13T13:12:53;101571.11;;;7.89;55.14
44351;BME280;62766;62.622;17.912;2023-02-13T13:15:31;101567.20;;;7.69;55.24
44351;BME280;62766;62.622;17.912;2023-02-13T13:18:15;101566.33;;;7.71;55.50
44351;BME280;62766;62.622;17.912;2023-02-13T13:20:56;101578.07;;;7.47;55.88
44351;BME280;62766;62.622;17.912;2023-02-13T13:23:30;101576.04;;;7.55;55.99
44351;BME280;62766;62.622;17.912;2023-02-13T13:26:06;101577.92;;;7.62;56.08